Airfield :
LOGIN :

Register | Disclaimer

   EN    FR    IT 

 










Legend :    VFR   Marginal VFR   IFR   Intensive IFR   Very Intensive IFR
Visi :
Ceiling :
>= 8 km
>= 3000ft
5 to 8 km
1000 to 3000 ft
1500m to 5 km
500 to 1000 ft
800 to 1500m
200 to 500 ft
< 800m
< 200 ft
Symbols :   Thunderstorms  Fog  Heavy snow  Heavy precipitations  Wind > 20 kt
SIGMETs :     Misc.  Thunderstorms  Icing  Turbulence  Mountain Waves  Volcanic Ashes






- Airport Elevation : 13 ft
- IATA code : LYX


EGMD - Lydd

CURRENT METAR :
  • 090720Z 05012KT 9999 FEW012 21/18 Q1029

EXPIRED METARs :
  • 090650Z AUTO 02008KT 350V050 9999 SCT010/// 19/18 Q1029
  • 090620Z AUTO 02006KT 9999 NCD 18/17 Q1028
  • 090550Z AUTO 36006KT 9999 NCD 16/15 Q1028
  • 090520Z AUTO 34006KT 9999 NCD 14/14 Q1028
  • 090450Z AUTO 02005KT 9000 NCD 13/13 Q1028

TAF TAF EGMD
Valid from the 09 at 06:00 until the 09 at 15:00 UTC


090455Z 0906/0915 04011KT 9999 SCT015
ATIS : +44 1797 322 422



MET'MAP, your aeronautical weather chart ! - Copyright ORBIFLY December 2007 - Disclaimer

ORBIFLY MET'MAP TEAM :

Programming & Development : Alexandra Zaïnal
Original concept : Baudouin d'Aumeries
Technical & hardware support : Manuel Goepfert
Assistance : Marc-Olivier Méhu




SOURCES & CREDITS :

   NOAA